Have a Safe July 4th! 

Flight Track Log - Related Links

Times and Time Zones

All times are in EST time to prevent confusion due to time zone crossing. See the PDT4314 flight status page for this flight to view local times or setup timezone preferences in your user account.

Time Position Orientation Groundspeed Altitude Reporting Facility
EST Latitude Longitude Course Direction KTS MPH feet Rate Location/Type
Thu 05:34:36 PM 39.9000 -75.2333 303° West 133 153 600  Level Philadelphia TRACON
Thu 05:35:18 PM 39.9167 -75.2667 303° West 148 170 1,600 1,471 Climbing Philadelphia TRACON
Thu 05:36:18 PM 39.9167 -75.3167 270° West 141 162 3,100 1,684 Climbing Philadelphia TRACON
Thu 05:37:12 PM 39.9333 -75.3667 294° West 146 168 4,800 1,532 Climbing Philadelphia TRACON
Thu 05:37:52 PM 39.9458 -75.3903 305° West 147 169 5,500 1,200 Climbing New York Center
Thu 05:38:52 PM 39.9483 -75.4364 274° West 140 161 6,800 1,300 Climbing New York Center
Thu 05:39:52 PM 39.9586 -75.4911 284° West 145 167 8,100 1,100 Climbing New York Center
Thu 05:40:52 PM 40.0061 -75.5025 350° North 178 205 9,000 1,100 Climbing New York Center
Thu 05:41:52 PM 40.0700 -75.5206 348° North 200 230 10,300 1,150 Climbing New York Center
Thu 05:42:52 PM 40.1131 -75.5369 344° North 195 224 11,300 1,000 Climbing New York Center
Thu 05:43:52 PM 40.1689 -75.5517 349° North 184 212 12,300 950 Climbing New York Center
Thu 05:44:52 PM 40.2292 -75.5531 359° North 195 224 13,200 850 Climbing New York Center
Thu 05:45:52 PM 40.2525 -75.5928 308° West 163 188 14,000 400 Climbing New York Center
Thu 05:46:52 PM 40.2817 -75.6467 305° West 168 193 14,000  Level New York Center
Thu 05:47:52 PM 40.3406 -75.6806 336° Northwest 198 228 14,000  Level New York Center
Thu 05:48:52 PM 40.3997 -75.7122 340° North 219 252 14,000  Level New York Center
Thu 05:49:00 PM 40.3959 -75.7068 340° North  Level FlightAware Approximate
Thu 05:49:52 PM 40.4567 -75.7489 334° Northwest 229 264 14,000  Level New York Center
Thu 05:50:52 PM 40.5075 -75.7772 337° Northwest 229 264 14,000  Level New York Center
Thu 05:51:52 PM 40.5603 -75.8111 334° Northwest 229 264 14,000  Level New York Center
Thu 05:52:52 PM 40.6236 -75.8431 339° North 223 257 14,000  Level New York Center
Thu 05:53:52 PM 40.6783 -75.8744 336° Northwest 217 250 14,000  Level New York Center
Thu 05:54:52 PM 40.7267 -75.9136 328° Northwest 211 243 14,000 -50 Level New York Center
Thu 05:55:52 PM 40.7814 -75.9506 333° Northwest 216 249 13,900 -50 Descending New York Center
Thu 05:56:52 PM 40.8322 -75.9764 339° North 216 249 13,900  Level New York Center
Thu 05:57:52 PM 40.8911 -76.0139 334° Northwest 211 243 13,900 33 Level New York Center
Thu 05:59:52 PM 41.0056 -76.0639 337° Northwest 216 249 14,000 33 Climbing New York Center
Thu 06:00:52 PM 41.0542 -76.0953 334° Northwest 204 235 14,000  Level New York Center
Thu 06:01:52 PM 41.1047 -76.1294 333° Northwest 199 229 14,000  Level New York Center
Thu 06:02:52 PM 41.1536 -76.1556 338° Northwest 199 229 14,000  Level New York Center
Thu 06:03:52 PM 41.2019 -76.1897 332° Northwest 199 229 14,000  Level New York Center
Thu 06:04:52 PM 41.2633 -76.2111 345° North 199 229 14,000  Level New York Center
Thu 06:05:52 PM 41.3286 -76.1997 North 217 250 14,000  Level New York Center
Thu 06:06:52 PM 41.3911 -76.1994 360° North 229 264 14,000  Level New York Center
Thu 06:07:52 PM 41.4517 -76.1933 North 234 269 14,000  Level New York Center
Thu 06:08:52 PM 41.5169 -76.1819 North 234 269 14,000 -350 Level New York Center
Thu 06:09:52 PM 41.5919 -76.1794 North 234 269 13,300 -850 Descending New York Center
Thu 06:10:52 PM 41.6692 -76.1747 North 255 293 12,300 -1,050 Descending New York Center
Thu 06:11:52 PM 41.7464 -76.1725 North 274 315 11,200 -1,250 Descending New York Center
Thu 06:12:52 PM 41.8181 -76.1533 11° North 279 321 9,800 -1,350 Descending New York Center
Thu 06:13:52 PM 41.8981 -76.1347 10° North 285 328 8,500 -1,200 Descending New York Center
Thu 06:14:52 PM 41.9839 -76.1222 North 285 328 7,400 -1,000 Descending New York Center
Thu 06:15:52 PM 42.0633 -76.1147 North 285 328 6,500 -1,050 Descending New York Center
Thu 06:16:52 PM 42.1406 -76.1125 North 279 321 5,300 -1,350 Descending New York Center
Thu 06:17:52 PM 42.2147 -76.1269 352° North 273 314 3,800 -1,050 Descending New York Center
Thu 06:18:52 PM 42.2469 -76.0567 58° Northeast 189 217 3,200 -550 Descending New York Center
Thu 06:19:52 PM 42.2472 -76.0064 90° East 148 170 2,700 -550 Descending New York Center
Thu 06:20:52 PM 42.2419 -75.9836 107° East 92 106 2,100 -600 Descending New York Center

Login

Don't have an account? Register now (free) for customized features, flight alerts, and more!